Time;durP1;ratioP1;P1;durP2;ratioP2;P2;SDS_P1;SDS_P2;PMS_P1;PMS_P2;Temp;Humidity;BMP_temperature;BMP_pressure;BME280_temperature;BME280_humidity;BME280_pressure;Samples;Min_cycle;Max_cycle;Signal;HPM_P1;HPM_P2
2022/08/05 00:01:20;;;;;;;2.80;1.55;;;29.00;99.90;;;;;;5043293;22;20494;-51
2022/08/05 00:03:47;;;;;;;3.83;1.45;;;29.00;99.90;;;;;;5031103;28;20083;-49
2022/08/05 00:06:15;;;;;;;3.78;1.75;;;29.00;99.90;;;;;;5031294;28;20390;-49
2022/08/05 00:08:42;;;;;;;5.43;1.77;;;29.00;99.90;;;;;;5031142;28;20033;-49
2022/08/05 00:11:10;;;;;;;6.50;1.47;;;29.00;99.90;;;;;;5031066;28;20362;-50
2022/08/05 00:13:38;;;;;;;2.72;1.38;;;29.00;99.90;;;;;;5030878;28;20283;-50
2022/08/05 00:16:04;;;;;;;4.97;1.88;;;28.90;99.90;;;;;;5031041;28;20040;-50
2022/08/05 00:18:30;;;;;;;7.65;1.80;;;29.00;99.90;;;;;;5031001;28;20064;-50
2022/08/05 00:20:56;;;;;;;5.18;1.80;;;28.90;99.90;;;;;;5013197;28;20037;-50
2022/08/05 00:23:23;;;;;;;7.75;1.60;;;28.90;99.90;;;;;;5030981;28;20025;-50
2022/08/05 00:25:49;;;;;;;8.27;1.63;;;29.00;99.90;;;;;;5030811;28;20025;-49
2022/08/05 00:28:16;;;;;;;3.20;1.65;;;29.00;99.90;;;;;;5031233;28;20097;-50
2022/08/05 00:30:42;;;;;;;4.90;1.90;;;29.00;99.90;;;;;;5013555;28;20034;-50
2022/08/05 00:33:08;;;;;;;4.20;1.33;;;29.00;99.90;;;;;;5030896;28;20504;-50
2022/08/05 00:35:34;;;;;;;2.35;1.10;;;29.00;99.90;;;;;;5033051;28;20042;-50
2022/08/05 00:38:01;;;;;;;4.07;1.40;;;29.00;99.90;;;;;;5034766;28;20017;-50
2022/08/05 00:40:28;;;;;;;3.63;1.40;;;29.00;99.90;;;;;;5035004;28;20529;-49
2022/08/05 00:42:57;;;;;;;2.85;1.23;;;29.00;99.90;;;;;;5034820;28;20025;-50
2022/08/05 00:45:23;;;;;;;3.38;1.27;;;29.00;99.90;;;;;;5034695;28;20459;-50
2022/08/05 00:47:49;;;;;;;4.30;1.40;;;29.00;99.90;;;;;;5034562;28;20033;-49
2022/08/05 00:50:14;;;;;;;5.03;1.15;;;29.00;99.90;;;;;;5034776;28;20084;-49
2022/08/05 00:52:40;;;;;;;6.05;2.08;;;29.00;99.90;;;;;;5034537;28;20052;-49
2022/08/05 00:55:06;;;;;;;3.85;1.65;;;29.00;99.90;;;;;;5034499;28;20401;-50
2022/08/05 00:57:32;;;;;;;5.57;1.58;;;29.00;99.90;;;;;;5034380;28;20029;-50
2022/08/05 00:59:58;;;;;;;3.33;1.77;;;29.00;99.90;;;;;;5034791;28;20056;-50
2022/08/05 01:02:23;;;;;;;4.45;1.30;;;29.00;99.90;;;;;;5034335;28;20025;-50
2022/08/05 01:04:49;;;;;;;4.43;1.27;;;29.00;99.90;;;;;;5034186;28;20076;-50
2022/08/05 01:07:15;;;;;;;4.70;1.50;;;29.00;99.90;;;;;;5016940;28;20056;-50
2022/08/05 01:09:41;;;;;;;4.50;1.52;;;29.00;99.90;;;;;;5034369;28;20391;-50
2022/08/05 01:12:14;;;;;;;6.43;1.63;;;29.10;99.90;;;;;;5034336;28;20112;-50
2022/08/05 01:15:00;;;;;;;6.05;1.65;;;29.10;99.90;;;;;;5034345;28;20108;-50
2022/08/05 01:17:48;;;;;;;5.80;1.30;;;29.10;99.90;;;;;;5034099;28;20549;-50
2022/08/05 01:20:22;;;;;;;5.32;1.77;;;29.10;99.90;;;;;;5016371;28;20037;-50
2022/08/05 01:23:03;;;;;;;3.33;1.67;;;29.10;99.90;;;;;;5034279;28;20108;-50
2022/08/05 01:26:06;;;;;;;5.30;2.08;;;29.20;99.90;;;;;;5033995;28;20032;-50
2022/08/05 01:28:44;;;;;;;4.40;1.50;;;29.20;99.90;;;;;;5033911;28;20026;-50
2022/08/05 01:31:33;;;;;;;2.72;1.40;;;29.20;99.90;;;;;;5033787;28;20025;-50
2022/08/05 01:34:03;;;;;;;2.83;1.20;;;29.20;99.90;;;;;;5033837;28;20499;-50
2022/08/05 01:36:34;;;;;;;6.53;1.58;;;29.20;99.90;;;;;;5033624;28;20033;-50
2022/08/05 01:39:00;;;;;;;7.32;1.40;;;29.20;99.90;;;;;;5033638;28;20022;-50
2022/08/05 01:41:31;;;;;;;4.55;1.10;;;29.10;99.90;;;;;;5033496;28;20067;-50
2022/08/05 01:43:57;;;;;;;4.07;1.40;;;29.10;99.90;;;;;;5033469;28;20030;-51
2022/08/05 01:46:25;;;;;;;2.90;1.10;;;29.10;99.90;;;;;;5032868;28;20025;-50
2022/08/05 01:48:54;;;;;;;3.25;0.80;;;29.10;99.90;;;;;;5033576;28;20029;-50
2022/08/05 01:51:20;;;;;;;2.00;0.88;;;29.10;99.90;;;;;;5033777;28;20028;-50
2022/08/05 01:53:50;;;;;;;2.57;0.83;;;29.00;99.90;;;;;;5033653;28;20022;-50
2022/08/05 01:56:17;;;;;;;2.90;1.33;;;29.00;99.90;;;;;;5033531;28;20274;-50
2022/08/05 01:58:44;;;;;;;2.92;1.23;;;29.00;99.90;;;;;;5033363;28;20366;-49
2022/08/05 02:01:13;;;;;;;2.50;1.00;;;29.00;99.90;;;;;;5033663;28;20053;-50
2022/08/05 02:03:45;;;;;;;3.85;1.10;;;29.00;99.90;;;;;;5015422;28;20025;-50
2022/08/05 02:06:11;;;;;;;3.50;1.75;;;29.00;99.90;;;;;;5033101;28;20033;-50
2022/08/05 02:08:37;;;;;;;6.82;0.80;;;29.00;99.90;;;;;;5015483;28;20029;-50
2022/08/05 02:11:12;;;;;;;3.97;1.05;;;29.00;99.90;;;;;;5033290;28;20067;-50
2022/08/05 02:13:57;;;;;;;2.83;1.08;;;29.00;99.90;;;;;;5033195;28;20017;-49
2022/08/05 02:16:33;;;;;;;2.92;1.90;;;29.00;99.90;;;;;;5032994;28;20408;-49
2022/08/05 02:19:09;;;;;;;5.05;1.38;;;29.00;99.90;;;;;;5032984;28;20096;-50
2022/08/05 02:21:42;;;;;;;3.47;1.20;;;29.00;99.90;;;;;;5032872;28;20124;-50
2022/08/05 02:24:13;;;;;;;2.00;1.25;;;29.00;99.90;;;;;;5015607;28;20025;-50
2022/08/05 02:26:45;;;;;;;3.13;2.15;;;29.00;99.90;;;;;;5032816;28;20022;-49
2022/08/05 02:29:15;;;;;;;2.83;1.17;;;29.00;99.90;;;;;;5031373;28;20057;-50
2022/08/05 02:31:43;;;;;;;4.35;1.15;;;29.00;99.90;;;;;;5032688;28;20085;-50
2022/08/05 02:34:11;;;;;;;3.38;0.90;;;29.10;99.90;;;;;;5032632;28;20091;-49
2022/08/05 02:36:42;;;;;;;;;;;29.10;99.90;;;;;;5033016;28;20029;-50
2022/08/05 02:39:09;;;;;;;3.03;0.85;;;29.10;99.90;;;;;;5032507;28;20257;-49
2022/08/05 02:41:36;;;;;;;3.75;0.98;;;29.10;99.90;;;;;;5032261;28;20120;-50
2022/08/05 02:44:06;;;;;;;4.85;1.17;;;29.10;99.90;;;;;;5032491;28;20449;-50
2022/08/05 02:46:34;;;;;;;4.28;1.27;;;29.00;99.90;;;;;;5032358;28;20052;-49
2022/08/05 02:49:00;;;;;;;3.47;0.93;;;29.00;99.90;;;;;;5032213;28;20025;-49
2022/08/05 02:51:28;;;;;;;2.63;1.05;;;29.00;99.90;;;;;;5014718;28;20022;-49
2022/08/05 02:53:54;;;;;;;1.65;0.90;;;29.10;99.90;;;;;;5032735;28;20025;-49
2022/08/05 02:56:20;;;;;;;8.18;2.42;;;29.10;99.90;;;;;;5032347;28;20078;-50
2022/08/05 02:58:48;;;;;;;3.15;1.17;;;29.10;99.90;;;;;;5031275;28;20470;-50
2022/08/05 03:01:17;;;;;;;;;;;29.00;99.90;;;;;;5032828;28;20057;-50
2022/08/05 03:03:43;;;;;;;3.35;1.17;;;29.10;99.90;;;;;;5032239;28;19905;-49
2022/08/05 03:06:10;;;;;;;4.43;1.52;;;29.10;99.90;;;;;;5032051;28;20029;-50
2022/08/05 03:08:38;;;;;;;6.03;1.60;;;29.10;99.90;;;;;;5032079;28;20430;-50
2022/08/05 03:11:16;;;;;;;1.50;1.00;;;29.00;99.90;;;;;;5031951;28;20168;-50
2022/08/05 03:13:42;;;;;;;4.25;1.30;;;29.00;99.90;;;;;;5031863;28;20433;-50
2022/08/05 03:16:07;;;;;;;2.65;1.00;;;29.10;99.90;;;;;;5032051;28;20040;-50
2022/08/05 03:18:33;;;;;;;3.65;1.23;;;29.10;99.90;;;;;;5030599;28;20029;-50
2022/08/05 03:20:59;;;;;;;3.95;0.95;;;29.10;99.90;;;;;;5031898;28;20040;-50
2022/08/05 03:23:25;;;;;;;2.97;1.02;;;29.10;99.90;;;;;;5031905;28;20064;-50
2022/08/05 03:25:51;;;;;;;3.38;1.13;;;29.10;99.90;;;;;;5031784;28;20430;-51
2022/08/05 03:28:18;;;;;;;1.92;1.00;;;29.10;99.90;;;;;;5013912;28;20121;-50
2022/08/05 03:30:45;;;;;;;5.63;1.40;;;29.00;99.90;;;;;;5031749;28;20079;-50
2022/08/05 03:33:11;;;;;;;4.70;1.70;;;29.00;99.90;;;;;;5031551;28;20029;-50
2022/08/05 03:35:37;;;;;;;6.20;1.77;;;29.00;99.90;;;;;;5031562;28;20477;-50
2022/08/05 03:38:03;;;;;;;1.92;0.93;;;29.00;99.90;;;;;;5031670;28;20128;-50
2022/08/05 03:40:29;;;;;;;4.95;0.90;;;29.00;99.90;;;;;;5031583;28;20557;-50
2022/08/05 03:42:55;;;;;;;5.53;1.30;;;29.00;99.90;;;;;;5031544;28;20025;-50
2022/08/05 03:45:21;;;;;;;3.85;1.27;;;29.00;99.90;;;;;;5031250;28;20037;-50
2022/08/05 03:47:46;;;;;;;2.45;1.00;;;29.00;99.90;;;;;;5031256;28;20026;-50
2022/08/05 03:50:12;;;;;;;1.83;0.80;;;29.00;99.90;;;;;;5031488;28;20022;-50
2022/08/05 03:53:06;;;;;;;5.50;1.60;;;29.00;99.90;;;;;;5031351;28;20052;-49
2022/08/05 03:55:38;;;;;;;2.97;1.10;;;29.00;99.90;;;;;;5019720;28;20032;-50
2022/08/05 03:58:11;;;;;;;3.55;1.13;;;29.00;99.90;;;;;;5031191;28;20434;-49
2022/08/05 04:00:39;;;;;;;4.03;1.33;;;29.00;99.90;;;;;;5032130;28;20144;-50
2022/08/05 04:03:07;;;;;;;5.70;1.30;;;29.00;99.90;;;;;;5031325;28;20022;-49
2022/08/05 04:05:35;;;;;;;2.75;0.90;;;28.90;99.90;;;;;;5031221;28;20478;-49
2022/08/05 04:08:06;;;;;;;4.70;1.00;;;29.00;99.90;;;;;;5031143;28;20104;-50
2022/08/05 04:10:34;;;;;;;4.72;0.98;;;28.90;99.90;;;;;;5030662;28;20030;-53
2022/08/05 04:13:00;;;;;;;3.03;1.00;;;28.90;99.90;;;;;;5031153;28;20021;-50
2022/08/05 04:15:26;;;;;;;2.50;1.15;;;28.90;99.90;;;;;;5031097;28;20034;-52
2022/08/05 04:17:54;;;;;;;2.87;1.00;;;28.90;99.90;;;;;;5031179;28;20021;-50
2022/08/05 04:20:21;;;;;;;1.75;0.90;;;28.90;99.90;;;;;;5030980;28;20677;-50
2022/08/05 04:22:48;;;;;;;4.75;1.17;;;28.90;99.90;;;;;;5031018;28;20030;-50
2022/08/05 04:25:14;;;;;;;2.35;1.10;;;28.90;99.90;;;;;;5030986;28;20033;-50
2022/08/05 04:27:39;;;;;;;3.20;1.58;;;28.90;99.90;;;;;;5013208;28;20044;-50
2022/08/05 04:30:07;;;;;;;2.13;0.95;;;28.90;99.90;;;;;;5013552;28;20500;-50
2022/08/05 04:32:32;;;;;;;3.60;1.13;;;28.90;99.90;;;;;;5030853;28;20060;-50
2022/08/05 04:34:58;;;;;;;5.82;1.30;;;28.90;99.90;;;;;;5030710;28;20068;-50
2022/08/05 04:37:24;;;;;;;9.82;1.88;;;28.90;99.90;;;;;;5030918;28;20037;-50
2022/08/05 04:39:50;;;;;;;3.67;1.05;;;28.90;99.90;;;;;;5030696;28;20412;-49
2022/08/05 04:42:15;;;;;;;3.40;1.23;;;28.90;99.90;;;;;;5030659;28;20546;-49
2022/08/05 04:44:41;;;;;;;6.25;2.25;;;28.90;99.90;;;;;;5030819;28;20017;-50
2022/08/05 04:47:07;;;;;;;9.93;2.33;;;28.90;99.90;;;;;;5030918;28;20026;-49
2022/08/05 04:49:33;;;;;;;6.55;1.90;;;28.90;99.90;;;;;;5030699;28;20068;-50
2022/08/05 04:51:59;;;;;;;6.88;2.25;;;28.80;99.90;;;;;;5029432;28;20402;-50
2022/08/05 04:54:27;;;;;;;9.77;1.60;;;28.80;99.90;;;;;;5030666;28;20027;-49
2022/08/05 04:56:53;;;;;;;9.00;1.80;;;28.70;99.90;;;;;;5030732;28;20026;-50
2022/08/05 04:59:21;;;;;;;8.25;1.83;;;28.70;99.90;;;;;;5030222;28;20048;-49
2022/08/05 05:01:48;;;;;;;9.30;1.83;;;28.70;99.90;;;;;;5030538;28;20037;-50
2022/08/05 05:04:14;;;;;;;5.35;2.15;;;28.60;99.90;;;;;;5030556;28;20036;-49
2022/08/05 05:06:40;;;;;;;9.68;2.00;;;28.60;99.90;;;;;;5030690;28;20021;-50
2022/08/05 05:09:06;;;;;;;7.82;2.20;;;28.60;99.90;;;;;;5030406;28;20037;-49
2022/08/05 05:11:32;;;;;;;11.23;1.77;;;28.60;99.90;;;;;;5030519;28;20025;-49
2022/08/05 05:13:58;;;;;;;4.97;1.80;;;28.60;99.90;;;;;;5030388;28;20051;-49
2022/08/05 05:16:23;;;;;;;5.55;1.50;;;28.60;99.90;;;;;;5030405;28;20036;-50
2022/08/05 05:18:49;;;;;;;7.18;1.67;;;28.60;99.90;;;;;;5030359;28;20033;-49
2022/08/05 05:21:15;;;;;;;7.88;1.50;;;28.60;99.90;;;;;;5030388;28;20041;-50
2022/08/05 05:23:41;;;;;;;8.10;1.55;;;28.60;99.90;;;;;;5034128;28;20107;-50
2022/08/05 05:26:06;;;;;;;8.30;2.30;;;28.50;99.90;;;;;;5033982;28;20167;-50
2022/08/05 05:28:32;;;;;;;10.35;1.90;;;28.60;99.90;;;;;;5033823;28;20574;-50
2022/08/05 05:30:58;;;;;;;6.65;1.48;;;28.60;99.90;;;;;;5033754;28;20432;-50
2022/08/05 05:33:24;;;;;;;9.75;2.05;;;28.60;99.90;;;;;;5033814;28;20029;-50
2022/08/05 05:35:50;;;;;;;9.68;2.25;;;28.60;99.90;;;;;;5033554;28;20021;-51
2022/08/05 05:38:16;;;;;;;5.25;2.00;;;28.60;99.90;;;;;;5033589;28;20500;-50
2022/08/05 05:40:42;;;;;;;8.23;2.67;;;28.60;99.90;;;;;;5033711;28;20045;-50
2022/08/05 05:43:08;;;;;;;8.25;2.10;;;28.60;99.90;;;;;;5033541;28;20033;-50
2022/08/05 05:45:34;;;;;;;5.30;1.48;;;28.60;99.90;;;;;;5015956;28;20041;-49
2022/08/05 05:48:00;;;;;;;4.85;2.05;;;28.60;99.90;;;;;;5033368;28;20096;-50
2022/08/05 05:50:26;;;;;;;8.43;1.73;;;28.60;99.90;;;;;;5033363;28;20441;-50
2022/08/05 05:52:51;;;;;;;8.32;1.95;;;28.60;99.90;;;;;;5033482;28;20021;-49
2022/08/05 05:55:17;;;;;;;15.85;2.50;;;28.60;99.90;;;;;;5033474;28;20492;-49
2022/08/05 05:57:45;;;;;;;13.02;2.20;;;28.60;99.90;;;;;;5033518;28;20021;-50
2022/08/05 06:00:15;;;;;;;6.80;1.80;;;28.60;99.90;;;;;;5033209;28;20049;-50
2022/08/05 06:02:41;;;;;;;9.23;2.13;;;28.60;99.90;;;;;;5033355;28;20386;-50
2022/08/05 06:05:09;;;;;;;9.87;1.90;;;28.60;99.90;;;;;;5015482;28;20385;-50
2022/08/05 06:07:34;;;;;;;;;;;28.60;99.90;;;;;;5033551;28;20742;-50
2022/08/05 06:10:00;;;;;;;7.15;1.60;;;28.60;99.90;;;;;;5033102;28;19967;-50
2022/08/05 06:12:26;;;;;;;9.07;3.47;;;28.60;99.90;;;;;;5032917;28;20075;-50
2022/08/05 06:14:52;;;;;;;14.45;3.97;;;28.60;99.90;;;;;;5031700;28;20086;-50
2022/08/05 06:17:18;;;;;;;6.65;2.45;;;28.60;99.90;;;;;;5032943;28;20267;-50
2022/08/05 06:19:44;;;;;;;9.10;2.42;;;28.60;99.90;;;;;;5032884;28;20481;-50
2022/08/05 06:22:10;;;;;;;7.40;3.10;;;28.70;99.90;;;;;;5032876;28;20043;-50
2022/08/05 06:24:41;;;;;;;7.28;2.67;;;28.70;99.90;;;;;;5032773;28;20021;-50
2022/08/05 06:27:07;;;;;;;7.78;2.88;;;28.70;99.90;;;;;;5032627;28;20412;-49
2022/08/05 06:29:35;;;;;;;4.75;2.08;;;28.70;99.90;;;;;;5032695;28;20095;-50
2022/08/05 06:32:00;;;;;;;5.78;1.63;;;28.70;99.90;;;;;;5032537;28;20040;-50
2022/08/05 06:34:26;;;;;;;6.25;2.72;;;28.70;99.90;;;;;;5032273;28;20029;-49
2022/08/05 06:36:52;;;;;;;9.63;2.10;;;28.70;99.90;;;;;;5032409;28;20074;-50
2022/08/05 06:39:17;;;;;;;9.95;2.22;;;28.80;99.90;;;;;;5032423;28;20116;-50
2022/08/05 06:41:43;;;;;;;9.10;1.67;;;28.80;99.90;;;;;;5032403;28;20038;-50
2022/08/05 06:44:09;;;;;;;4.28;1.83;;;28.80;99.90;;;;;;5032264;28;20025;-49
2022/08/05 06:46:35;;;;;;;11.85;1.95;;;28.80;99.90;;;;;;5032127;28;20021;-49
2022/08/05 06:49:00;;;;;;;5.53;1.85;;;28.90;99.90;;;;;;5030831;28;20034;-50
2022/08/05 06:51:26;;;;;;;6.40;1.83;;;28.90;99.90;;;;;;5032206;28;21023;-49
2022/08/05 06:53:52;;;;;;;5.03;1.88;;;28.90;99.90;;;;;;5032020;28;20511;-50
2022/08/05 06:56:18;;;;;;;10.38;2.00;;;28.90;99.90;;;;;;5032339;28;20116;-50
2022/08/05 06:58:44;;;;;;;6.55;1.80;;;29.00;99.90;;;;;;5032029;28;20033;-50
2022/08/05 07:01:10;;;;;;;7.28;2.03;;;29.00;99.90;;;;;;5032017;28;20060;-51
2022/08/05 07:03:35;;;;;;;10.90;1.58;;;29.00;99.90;;;;;;5031971;28;20436;-50
2022/08/05 07:06:03;;;;;;;7.32;1.60;;;29.00;99.90;;;;;;5032031;28;20504;-50
2022/08/05 07:08:29;;;;;;;3.42;1.75;;;29.10;99.90;;;;;;5031951;28;20408;-49
2022/08/05 07:10:55;;;;;;;5.40;1.60;;;29.10;99.90;;;;;;5031983;28;20028;-50
2022/08/05 07:18:52;;;;;;;8.00;2.13;;;29.10;99.90;;;;;;5031954;28;20087;-50
2022/08/05 07:21:18;;;;;;;5.63;2.05;;;29.10;99.90;;;;;;5031649;28;20040;-50
2022/08/05 07:23:44;;;;;;;12.73;2.45;;;29.20;99.90;;;;;;5031708;28;20028;-50
2022/08/05 07:26:09;;;;;;;9.40;1.98;;;29.10;99.90;;;;;;5031719;28;20363;-50
2022/08/05 07:28:35;;;;;;;8.50;2.08;;;29.20;99.90;;;;;;5031738;28;20017;-50
2022/08/05 07:31:01;;;;;;;7.40;2.13;;;29.20;99.90;;;;;;5031634;28;20095;-50
2022/08/05 07:33:27;;;;;;;11.10;2.28;;;29.20;99.90;;;;;;5031542;28;20395;-50
2022/08/05 07:35:52;;;;;;;6.65;2.67;;;29.20;99.90;;;;;;5031565;28;20400;-50
2022/08/05 07:38:18;;;;;;;7.35;1.63;;;29.20;99.90;;;;;;5031732;28;20405;-51
2022/08/05 07:40:44;;;;;;;4.82;1.60;;;29.30;99.90;;;;;;5031403;28;20424;-50
2022/08/05 07:43:12;;;;;;;6.28;1.80;;;29.30;99.90;;;;;;5031562;28;20128;-49
2022/08/05 07:45:39;;;;;;;6.00;1.52;;;29.30;99.90;;;;;;5030696;28;20028;-49
2022/08/05 07:48:05;;;;;;;3.35;1.83;;;29.30;99.90;;;;;;5031286;28;20473;-49
2022/08/05 07:50:31;;;;;;;5.60;1.35;;;29.30;99.90;;;;;;5029870;28;20040;-49
2022/08/05 07:52:57;;;;;;;5.00;1.70;;;29.30;99.90;;;;;;5031103;28;20163;-50
2022/08/05 07:55:22;;;;;;;3.47;1.55;;;29.30;99.90;;;;;;5031193;28;20022;-50
2022/08/05 07:57:49;;;;;;;5.47;1.77;;;29.30;99.90;;;;;;5031360;28;20049;-49
2022/08/05 08:00:15;;;;;;;4.10;1.33;;;29.40;99.90;;;;;;5031041;28;20382;-49
2022/08/05 08:02:43;;;;;;;5.82;1.25;;;29.40;99.90;;;;;;5031015;28;20036;-49
2022/08/05 08:05:09;;;;;;;5.13;1.90;;;29.40;99.90;;;;;;5031039;28;20049;-49
2022/08/05 08:07:35;;;;;;;5.78;2.17;;;29.40;99.90;;;;;;5030989;28;20036;-49
2022/08/05 08:10:02;;;;;;;6.18;1.58;;;29.40;99.90;;;;;;5013211;28;20137;-49
2022/08/05 08:12:27;;;;;;;5.80;1.30;;;29.40;99.90;;;;;;5030768;28;20048;-50
2022/08/05 08:14:53;;;;;;;10.52;2.00;;;29.40;99.90;;;;;;5031129;28;20477;-49
2022/08/05 08:17:19;;;;;;;5.97;1.80;;;29.40;99.90;;;;;;5031104;28;20029;-49
2022/08/05 08:19:45;;;;;;;4.72;1.88;;;29.40;99.90;;;;;;5030688;28;20474;-50
2022/08/05 08:22:11;;;;;;;3.20;1.35;;;29.40;99.90;;;;;;5030850;28;20030;-50
2022/08/05 08:24:37;;;;;;;5.90;2.00;;;29.40;99.90;;;;;;5030818;28;20029;-50
2022/08/05 08:27:04;;;;;;;4.70;1.75;;;29.40;99.90;;;;;;5030795;28;20055;-50
2022/08/05 08:29:30;;;;;;;2.55;1.40;;;29.40;99.90;;;;;;5030849;28;20436;-50
2022/08/05 08:31:56;;;;;;;2.65;1.48;;;29.40;99.90;;;;;;5030499;28;20132;-50
2022/08/05 08:34:24;;;;;;;5.97;2.10;;;29.40;99.90;;;;;;5030766;28;20022;-50
2022/08/05 08:36:50;;;;;;;4.63;1.65;;;29.40;99.90;;;;;;5012827;28;20143;-50
2022/08/05 08:39:17;;;;;;;4.22;1.58;;;29.50;99.90;;;;;;5030632;28;20030;-50
2022/08/05 08:41:50;;;;;;;4.93;1.83;;;29.50;99.90;;;;;;5030428;28;20037;-50
2022/08/05 08:44:22;;;;;;;4.93;1.38;;;29.50;99.90;;;;;;5030510;28;20033;-49
2022/08/05 08:46:47;;;;;;;3.65;2.25;;;29.50;99.90;;;;;;5030707;28;20041;-49
2022/08/05 08:49:14;;;;;;;4.20;1.83;;;29.60;99.90;;;;;;5030434;28;20026;-50
2022/08/05 08:51:42;;;;;;;3.47;1.60;;;29.60;99.90;;;;;;5013090;28;20547;-50
2022/08/05 08:54:09;;;;;;;;;;;29.60;99.90;;;;;;5030911;28;20388;-50
2022/08/05 08:56:38;;;;;;;3.90;1.30;;;29.60;99.90;;;;;;5032631;28;19909;-50
2022/08/05 08:59:04;;;;;;;3.63;1.60;;;29.70;99.90;;;;;;5034395;28;20084;-50
2022/08/05 09:01:31;;;;;;;9.40;2.38;;;29.70;99.90;;;;;;5034023;28;20076;-50
2022/08/05 09:03:58;;;;;;;5.28;2.10;;;29.70;99.90;;;;;;5034769;28;20017;-51
2022/08/05 09:06:29;;;;;;;7.43;1.50;;;29.70;99.90;;;;;;5034626;28;20043;-51
2022/08/05 09:08:55;;;;;;;6.07;1.52;;;29.70;99.90;;;;;;5034465;28;20032;-51
2022/08/05 09:11:21;;;;;;;4.90;2.22;;;29.70;99.90;;;;;;5034016;28;20059;-51
2022/08/05 09:13:48;;;;;;;5.57;1.60;;;29.80;99.90;;;;;;5034363;28;20876;-51
2022/08/05 09:16:14;;;;;;;6.25;1.73;;;29.80;99.90;;;;;;5034280;28;20029;-51
2022/08/05 09:18:39;;;;;;;5.35;1.95;;;29.80;99.90;;;;;;5016084;28;20104;-51
2022/08/05 09:21:05;;;;;;;4.45;1.50;;;29.90;99.90;;;;;;5033853;28;20106;-50
2022/08/05 09:23:31;;;;;;;4.93;1.25;;;29.80;99.90;;;;;;5033871;28;20022;-51
2022/08/05 09:26:18;;;;;;;9.48;1.65;;;29.90;99.90;;;;;;5034010;28;20118;-51
2022/08/05 09:28:46;;;;;;;7.38;1.65;;;29.80;99.90;;;;;;5033663;28;20025;-50
2022/08/05 09:31:14;;;;;;;5.28;1.60;;;29.80;99.90;;;;;;5015961;28;20030;-51
2022/08/05 09:33:58;;;;;;;10.63;2.20;;;29.90;99.90;;;;;;5033775;28;20032;-50
2022/08/05 09:36:37;;;;;;;5.10;1.77;;;29.90;99.90;;;;;;5033603;28;20545;-50
2022/08/05 09:39:07;;;;;;;4.85;1.70;;;29.90;99.90;;;;;;5033619;28;20061;-50
2022/08/05 09:41:33;;;;;;;4.43;1.40;;;30.00;99.90;;;;;;5033569;28;20038;-50
2022/08/05 09:43:59;;;;;;;4.88;1.98;;;30.00;99.90;;;;;;5033775;28;20059;-50
2022/08/05 09:46:33;;;;;;;3.80;1.58;;;30.00;99.90;;;;;;5033700;28;20409;-50
2022/08/05 09:49:03;;;;;;;10.13;2.45;;;30.00;99.90;;;;;;5033753;28;20022;-50
2022/08/05 09:51:37;;;;;;;14.25;8.05;;;30.00;99.90;;;;;;5033717;28;20052;-51
2022/08/05 09:54:07;;;;;;;5.45;2.90;;;30.00;99.90;;;;;;5033413;28;20026;-50
2022/08/05 09:56:36;;;;;;;9.07;4.72;;;30.10;99.90;;;;;;5033301;28;20101;-50
2022/08/05 09:59:06;;;;;;;8.20;7.35;;;30.10;99.90;;;;;;5033237;28;20466;-50
2022/08/05 10:01:40;;;;;;;16.02;8.70;;;30.10;99.90;;;;;;5033224;28;20053;-50
2022/08/05 10:04:09;;;;;;;8.95;2.70;;;30.10;99.90;;;;;;5033295;28;20435;-51
2022/08/05 10:06:35;;;;;;;5.32;2.63;;;30.20;99.90;;;;;;5033219;28;20478;-50
2022/08/05 10:09:20;;;;;;;8.02;2.50;;;30.20;99.90;;;;;;5032628;28;20127;-50
2022/08/05 10:11:46;;;;;;;6.60;3.10;;;30.20;99.90;;;;;;5033211;28;20033;-50
2022/08/05 10:14:24;;;;;;;6.80;2.73;;;30.20;99.90;;;;;;5033294;28;20416;-50
2022/08/05 10:16:55;;;;;;;6.95;2.10;;;30.20;99.90;;;;;;5033182;28;20013;-50
2022/08/05 10:19:25;;;;;;;6.15;2.30;;;30.20;99.90;;;;;;5033087;28;20115;-50
2022/08/05 10:21:51;;;;;;;6.32;2.35;;;30.20;99.90;;;;;;5032697;28;20041;-50
2022/08/05 10:24:18;;;;;;;4.38;2.05;;;30.30;99.90;;;;;;5032703;28;20029;-51
2022/08/05 10:26:46;;;;;;;;;;;30.30;99.90;;;;;;5033223;28;20108;-50
2022/08/05 10:29:12;;;;;;;2.70;1.75;;;30.30;99.90;;;;;;5032657;28;19905;-50
2022/08/05 10:31:40;;;;;;;5.40;1.50;;;30.30;99.90;;;;;;5032676;28;20076;-50
2022/08/05 10:34:09;;;;;;;6.85;2.33;;;30.30;99.90;;;;;;5032624;28;20028;-50
2022/08/05 10:36:40;;;;;;;5.55;2.03;;;30.30;99.90;;;;;;5032368;28;20032;-50
2022/08/05 10:39:20;;;;;;;7.35;2.08;;;30.40;99.90;;;;;;5014444;28;20029;-50
2022/08/05 10:41:52;;;;;;;11.68;2.88;;;30.40;99.90;;;;;;5032657;28;20072;-50
2022/08/05 10:44:21;;;;;;;7.70;2.60;;;30.40;99.90;;;;;;5031191;28;20044;-51
2022/08/05 10:46:55;;;;;;;11.80;4.40;;;30.40;99.90;;;;;;5032464;28;20533;-51
2022/08/05 10:49:25;;;;;;;10.15;4.00;;;30.40;99.90;;;;;;5032190;28;20528;-49
2022/08/05 10:51:57;;;;;;;11.23;5.70;;;30.50;99.90;;;;;;5032317;28;20095;-50
2022/08/05 10:54:43;;;;;;;8.13;4.68;;;30.50;99.90;;;;;;5032402;28;20445;-50
2022/08/05 10:57:11;;;;;;;7.67;3.57;;;30.50;99.90;;;;;;5032394;28;20079;-50
2022/08/05 10:59:38;;;;;;;6.63;2.67;;;30.50;99.90;;;;;;5032012;28;20122;-50
2022/08/05 11:02:12;;;;;;;4.95;2.33;;;30.50;99.90;;;;;;5032428;28;20025;-49
2022/08/05 11:04:53;;;;;;;15.38;4.20;;;30.50;99.90;;;;;;5031883;28;20465;-50
2022/08/05 11:07:20;;;;;;;8.15;2.63;;;30.50;99.90;;;;;;5032159;28;20104;-50
2022/08/05 11:09:55;;;;;;;5.38;2.13;;;30.50;99.90;;;;;;5031824;28;20029;-50
2022/08/05 11:12:33;;;;;;;6.10;2.65;;;30.40;99.90;;;;;;5031921;28;20033;-49
2022/08/05 11:15:06;;;;;;;6.40;1.90;;;30.40;99.90;;;;;;5031958;28;20378;-50
2022/08/05 11:17:36;;;;;;;6.20;2.20;;;30.40;99.90;;;;;;5032151;28;20034;-50
2022/08/05 11:20:07;;;;;;;4.50;1.80;;;30.40;99.90;;;;;;5029813;28;20033;-49
2022/08/05 11:22:47;;;;;;;10.13;3.83;;;30.40;99.90;;;;;;5014253;28;20112;-50
2022/08/05 11:25:37;;;;;;;13.07;2.53;;;30.50;99.90;;;;;;5031472;28;20584;-50
2022/08/05 11:28:11;;;;;;;9.35;6.25;;;30.50;99.90;;;;;;5031695;28;20113;-49
2022/08/05 11:30:55;;;;;;;7.43;2.72;;;30.50;99.90;;;;;;5030062;28;20108;-49
2022/08/05 11:33:25;;;;;;;3.75;2.00;;;30.50;99.90;;;;;;5031476;28;20503;-49
2022/08/05 11:35:52;;;;;;;4.10;2.00;;;30.60;99.90;;;;;;5031344;28;20026;-49
2022/08/05 11:38:38;;;;;;;6.63;2.67;;;30.60;99.90;;;;;;5031565;28;20095;-50
2022/08/05 11:41:24;;;;;;;14.57;7.75;;;30.60;99.90;;;;;;5031609;28;20061;-50
2022/08/05 11:44:11;;;;;;;7.78;2.83;;;30.70;99.90;;;;;;5031387;28;20115;-49
2022/08/05 11:46:52;;;;;;;7.80;1.80;;;30.70;99.90;;;;;;5031452;28;20117;-50
2022/08/05 11:49:20;;;;;;;9.18;2.45;;;30.70;99.90;;;;;;5031262;28;20014;-50
2022/08/05 11:51:49;;;;;;;8.50;3.33;;;30.70;99.90;;;;;;5031162;28;20553;-50
2022/08/05 11:54:23;;;;;;;9.65;4.18;;;30.70;99.90;;;;;;5031273;28;20029;-49
2022/08/05 11:56:51;;;;;;;9.70;4.80;;;30.70;99.90;;;;;;5031187;28;20366;-50
2022/08/05 11:59:24;;;;;;;6.30;3.13;;;30.70;99.90;;;;;;5030765;28;20076;-51
2022/08/05 12:02:01;;;;;;;15.43;11.00;;;30.70;99.90;;;;;;5031055;28;20040;-50
2022/08/05 12:04:39;;;;;;;11.10;5.45;;;30.70;99.90;;;;;;5031045;28;20038;-50
2022/08/05 12:07:10;;;;;;;12.02;7.00;;;30.70;99.90;;;;;;5031162;28;20021;-50
2022/08/05 12:09:38;;;;;;;8.80;4.25;;;30.80;99.90;;;;;;5029979;28;20036;-50
2022/08/05 12:12:06;;;;;;;9.05;3.85;;;30.70;99.90;;;;;;5013271;28;20032;-50
2022/08/05 12:14:40;;;;;;;6.47;2.92;;;30.70;99.90;;;;;;5013539;28;20192;-50
2022/08/05 12:17:10;;;;;;;8.63;3.50;;;30.70;99.90;;;;;;5031146;28;20025;-50
2022/08/05 12:19:51;;;;;;;7.95;3.30;;;30.70;99.90;;;;;;5013499;28;20055;-50
2022/08/05 12:22:20;;;;;;;5.57;2.63;;;30.80;99.90;;;;;;5031032;28;20025;-50
2022/08/05 12:24:48;;;;;;;7.32;4.10;;;30.80;99.90;;;;;;5030871;28;20075;-49
2022/08/05 12:27:24;;;;;;;12.38;7.28;;;30.80;99.90;;;;;;5030898;28;20021;-50
2022/08/05 12:30:09;;;;;;;10.50;5.25;;;30.80;99.90;;;;;;5030847;28;20032;-51
2022/08/05 12:32:43;;;;;;;7.60;4.28;;;30.90;99.90;;;;;;5034922;28;20038;-50
2022/08/05 12:35:09;;;;;;;9.85;6.32;;;30.90;99.90;;;;;;5035142;28;20025;-51
2022/08/05 12:37:35;;;;;;;8.98;2.90;;;31.00;99.90;;;;;;5034937;28;20034;-52
2022/08/05 12:40:01;;;;;;;16.88;10.25;;;30.90;99.90;;;;;;5034898;28;20048;-50
2022/08/05 12:42:29;;;;;;;11.75;5.85;;;30.90;99.90;;;;;;5034808;28;20528;-50
2022/08/05 12:45:06;;;;;;;7.35;3.50;;;30.90;99.90;;;;;;5034745;28;20175;-51
2022/08/05 12:47:32;;;;;;;7.00;3.22;;;30.90;99.90;;;;;;5033384;28;20060;-50
2022/08/05 12:49:58;;;;;;;11.57;6.75;;;30.90;99.90;;;;;;5034622;28;20037;-50
2022/08/05 12:52:24;;;;;;;10.15;4.65;;;30.90;99.90;;;;;;5034596;28;20021;-52
2022/08/05 12:54:50;;;;;;;10.05;5.05;;;30.90;99.90;;;;;;5034438;28;20109;-50
2022/08/05 12:57:17;;;;;;;5.53;2.78;;;31.00;99.90;;;;;;5034383;28;20041;-50
2022/08/05 12:59:47;;;;;;;8.07;3.22;;;31.00;99.90;;;;;;5032831;28;20040;-50
2022/08/05 13:02:25;;;;;;;7.57;3.05;;;31.00;99.90;;;;;;5034516;28;20033;-51